sensor_id;sensor_type;location;lat;lon;timestamp;temperature;humidity
27226;DHT22;14732;51.074;3.788;2023-05-23T00:00:41;15.30;99.90
27226;DHT22;14732;51.074;3.788;2023-05-23T00:03:07;15.40;99.90
27226;DHT22;14732;51.074;3.788;2023-05-23T00:05:33;15.30;99.90
27226;DHT22;14732;51.074;3.788;2023-05-23T00:08:00;15.40;99.90
27226;DHT22;14732;51.074;3.788;2023-05-23T00:10:26;15.40;99.90
27226;DHT22;14732;51.074;3.788;2023-05-23T00:12:51;15.40;99.90
27226;DHT22;14732;51.074;3.788;2023-05-23T00:15:18;15.50;99.90
27226;DHT22;14732;51.074;3.788;2023-05-23T00:17:44;15.30;99.90
27226;DHT22;14732;51.074;3.788;2023-05-23T00:20:11;15.20;99.90
27226;DHT22;14732;51.074;3.788;2023-05-23T00:22:38;15.20;99.90
27226;DHT22;14732;51.074;3.788;2023-05-23T00:25:06;15.20;99.90
27226;DHT22;14732;51.074;3.788;2023-05-23T00:27:33;15.20;99.90
27226;DHT22;14732;51.074;3.788;2023-05-23T00:29:58;15.10;99.90
27226;DHT22;14732;51.074;3.788;2023-05-23T00:32:24;15.10;99.90
27226;DHT22;14732;51.074;3.788;2023-05-23T00:34:50;15.10;99.90
27226;DHT22;14732;51.074;3.788;2023-05-23T00:37:21;15.00;99.90
27226;DHT22;14732;51.074;3.788;2023-05-23T00:39:47;14.90;99.90
27226;DHT22;14732;51.074;3.788;2023-05-23T00:42:13;15.00;99.90
27226;DHT22;14732;51.074;3.788;2023-05-23T00:44:39;14.90;99.90
27226;DHT22;14732;51.074;3.788;2023-05-23T00:47:06;15.00;99.90
27226;DHT22;14732;51.074;3.788;2023-05-23T00:49:32;15.00;99.90
27226;DHT22;14732;51.074;3.788;2023-05-23T00:51:59;15.00;99.90
27226;DHT22;14732;51.074;3.788;2023-05-23T00:54:29;15.10;99.90
27226;DHT22;14732;51.074;3.788;2023-05-23T00:56:57;15.10;99.90
27226;DHT22;14732;51.074;3.788;2023-05-23T00:59:24;15.20;99.90
27226;DHT22;14732;51.074;3.788;2023-05-23T01:01:52;15.20;99.90
27226;DHT22;14732;51.074;3.788;2023-05-23T01:04:19;15.20;99.90
27226;DHT22;14732;51.074;3.788;2023-05-23T01:06:45;15.20;99.90
27226;DHT22;14732;51.074;3.788;2023-05-23T01:09:14;15.40;99.90
27226;DHT22;14732;51.074;3.788;2023-05-23T01:14:37;15.10;99.90
27226;DHT22;14732;51.074;3.788;2023-05-23T01:17:18;15.00;99.90
27226;DHT22;14732;51.074;3.788;2023-05-23T01:19:58;15.00;99.90
27226;DHT22;14732;51.074;3.788;2023-05-23T01:27:57;15.00;99.90
27226;DHT22;14732;51.074;3.788;2023-05-23T01:30:24;15.10;99.90
27226;DHT22;14732;51.074;3.788;2023-05-23T01:32:53;15.30;99.90
27226;DHT22;14732;51.074;3.788;2023-05-23T01:35:29;15.20;99.90
27226;DHT22;14732;51.074;3.788;2023-05-23T01:37:56;15.10;99.90
27226;DHT22;14732;51.074;3.788;2023-05-23T01:40:22;15.10;99.90
27226;DHT22;14732;51.074;3.788;2023-05-23T01:42:49;15.10;99.90
27226;DHT22;14732;51.074;3.788;2023-05-23T01:45:16;15.30;99.90
27226;DHT22;14732;51.074;3.788;2023-05-23T01:47:42;15.30;99.90
27226;DHT22;14732;51.074;3.788;2023-05-23T01:50:10;15.10;99.90
27226;DHT22;14732;51.074;3.788;2023-05-23T01:52:36;15.20;99.90
27226;DHT22;14732;51.074;3.788;2023-05-23T01:55:05;15.40;99.90
27226;DHT22;14732;51.074;3.788;2023-05-23T01:57:35;15.40;99.90
27226;DHT22;14732;51.074;3.788;2023-05-23T02:00:05;15.40;99.90
27226;DHT22;14732;51.074;3.788;2023-05-23T02:02:34;15.50;99.90
27226;DHT22;14732;51.074;3.788;2023-05-23T02:05:00;15.60;99.90
27226;DHT22;14732;51.074;3.788;2023-05-23T02:07:26;15.70;99.90
27226;DHT22;14732;51.074;3.788;2023-05-23T02:09:52;15.60;99.90
27226;DHT22;14732;51.074;3.788;2023-05-23T02:12:17;15.50;99.90
27226;DHT22;14732;51.074;3.788;2023-05-23T02:14:43;15.30;99.90
27226;DHT22;14732;51.074;3.788;2023-05-23T02:17:09;15.40;99.90
27226;DHT22;14732;51.074;3.788;2023-05-23T02:19:35;15.40;99.90
27226;DHT22;14732;51.074;3.788;2023-05-23T02:22:01;15.50;99.90
27226;DHT22;14732;51.074;3.788;2023-05-23T02:24:27;15.50;99.90
27226;DHT22;14732;51.074;3.788;2023-05-23T02:26:53;15.50;99.90
27226;DHT22;14732;51.074;3.788;2023-05-23T02:29:19;15.50;99.90
27226;DHT22;14732;51.074;3.788;2023-05-23T02:31:45;15.40;99.90
27226;DHT22;14732;51.074;3.788;2023-05-23T02:34:10;15.30;99.90
27226;DHT22;14732;51.074;3.788;2023-05-23T02:36:36;15.10;99.90
27226;DHT22;14732;51.074;3.788;2023-05-23T02:39:02;15.10;99.90
27226;DHT22;14732;51.074;3.788;2023-05-23T02:41:28;15.10;99.90
27226;DHT22;14732;51.074;3.788;2023-05-23T02:43:54;15.00;99.90
27226;DHT22;14732;51.074;3.788;2023-05-23T02:46:20;15.20;99.90
27226;DHT22;14732;51.074;3.788;2023-05-23T02:48:45;15.10;99.90
27226;DHT22;14732;51.074;3.788;2023-05-23T02:51:11;15.10;99.90
27226;DHT22;14732;51.074;3.788;2023-05-23T02:53:38;15.20;99.90
27226;DHT22;14732;51.074;3.788;2023-05-23T02:56:04;15.30;99.90
27226;DHT22;14732;51.074;3.788;2023-05-23T02:58:30;15.30;99.90
27226;DHT22;14732;51.074;3.788;2023-05-23T03:00:56;15.30;99.90
27226;DHT22;14732;51.074;3.788;2023-05-23T03:03:22;15.30;99.90
27226;DHT22;14732;51.074;3.788;2023-05-23T03:05:48;15.40;99.90
27226;DHT22;14732;51.074;3.788;2023-05-23T03:08:13;15.50;99.90
27226;DHT22;14732;51.074;3.788;2023-05-23T03:10:39;15.50;99.90
27226;DHT22;14732;51.074;3.788;2023-05-23T03:13:04;15.40;99.90
27226;DHT22;14732;51.074;3.788;2023-05-23T03:15:30;15.30;99.90
27226;DHT22;14732;51.074;3.788;2023-05-23T03:17:56;15.10;99.90
27226;DHT22;14732;51.074;3.788;2023-05-23T03:20:22;14.80;99.90
27226;DHT22;14732;51.074;3.788;2023-05-23T03:22:47;14.90;99.90
27226;DHT22;14732;51.074;3.788;2023-05-23T03:25:14;15.00;99.90
27226;DHT22;14732;51.074;3.788;2023-05-23T03:27:41;14.90;99.90
27226;DHT22;14732;51.074;3.788;2023-05-23T03:30:07;14.80;99.90
27226;DHT22;14732;51.074;3.788;2023-05-23T03:32:33;14.70;99.90
27226;DHT22;14732;51.074;3.788;2023-05-23T03:34:59;14.80;99.90
27226;DHT22;14732;51.074;3.788;2023-05-23T03:37:24;14.90;99.90
27226;DHT22;14732;51.074;3.788;2023-05-23T03:39:52;14.90;99.90
27226;DHT22;14732;51.074;3.788;2023-05-23T03:42:18;14.70;99.90
27226;DHT22;14732;51.074;3.788;2023-05-23T03:44:44;14.70;99.90
27226;DHT22;14732;51.074;3.788;2023-05-23T03:47:10;14.70;99.90
27226;DHT22;14732;51.074;3.788;2023-05-23T03:49:36;14.70;99.90
27226;DHT22;14732;51.074;3.788;2023-05-23T03:52:03;14.80;99.90
27226;DHT22;14732;51.074;3.788;2023-05-23T03:54:30;14.60;99.90
27226;DHT22;14732;51.074;3.788;2023-05-23T03:56:56;14.60;99.90
27226;DHT22;14732;51.074;3.788;2023-05-23T03:59:22;14.60;99.90
27226;DHT22;14732;51.074;3.788;2023-05-23T04:01:47;14.60;99.90
27226;DHT22;14732;51.074;3.788;2023-05-23T04:04:13;14.90;99.90
27226;DHT22;14732;51.074;3.788;2023-05-23T04:06:39;14.90;99.90
27226;DHT22;14732;51.074;3.788;2023-05-23T04:09:04;14.90;99.90
27226;DHT22;14732;51.074;3.788;2023-05-23T04:11:31;14.80;99.90
27226;DHT22;14732;51.074;3.788;2023-05-23T04:13:56;14.80;99.90
27226;DHT22;14732;51.074;3.788;2023-05-23T04:16:23;14.80;99.90
27226;DHT22;14732;51.074;3.788;2023-05-23T04:18:48;14.90;99.90
27226;DHT22;14732;51.074;3.788;2023-05-23T04:21:14;14.90;99.90
27226;DHT22;14732;51.074;3.788;2023-05-23T04:23:40;15.10;99.90
27226;DHT22;14732;51.074;3.788;2023-05-23T04:26:06;14.90;99.90
27226;DHT22;14732;51.074;3.788;2023-05-23T04:28:33;14.70;99.90
27226;DHT22;14732;51.074;3.788;2023-05-23T04:30:59;14.80;99.90
27226;DHT22;14732;51.074;3.788;2023-05-23T04:33:27;14.70;99.90
27226;DHT22;14732;51.074;3.788;2023-05-23T04:35:54;14.60;99.90
27226;DHT22;14732;51.074;3.788;2023-05-23T04:38:20;14.60;99.90
27226;DHT22;14732;51.074;3.788;2023-05-23T04:40:47;14.60;99.90
27226;DHT22;14732;51.074;3.788;2023-05-23T04:43:13;14.80;99.90
27226;DHT22;14732;51.074;3.788;2023-05-23T04:45:40;14.90;99.90
27226;DHT22;14732;51.074;3.788;2023-05-23T04:48:06;14.70;99.90
27226;DHT22;14732;51.074;3.788;2023-05-23T04:50:32;14.80;99.90
27226;DHT22;14732;51.074;3.788;2023-05-23T04:53:00;15.00;99.90
27226;DHT22;14732;51.074;3.788;2023-05-23T04:55:25;15.00;99.90
27226;DHT22;14732;51.074;3.788;2023-05-23T04:57:51;15.10;99.90
27226;DHT22;14732;51.074;3.788;2023-05-23T05:00:17;15.10;99.90
27226;DHT22;14732;51.074;3.788;2023-05-23T05:02:42;15.00;99.90
27226;DHT22;14732;51.074;3.788;2023-05-23T05:05:08;15.00;99.90
27226;DHT22;14732;51.074;3.788;2023-05-23T05:07:34;14.80;99.90
27226;DHT22;14732;51.074;3.788;2023-05-23T05:10:00;14.70;99.90
27226;DHT22;14732;51.074;3.788;2023-05-23T05:12:26;14.90;99.90
27226;DHT22;14732;51.074;3.788;2023-05-23T05:14:51;14.80;99.90
27226;DHT22;14732;51.074;3.788;2023-05-23T05:17:17;14.80;99.90
27226;DHT22;14732;51.074;3.788;2023-05-23T05:19:44;14.70;99.90
27226;DHT22;14732;51.074;3.788;2023-05-23T05:22:10;14.80;99.90
27226;DHT22;14732;51.074;3.788;2023-05-23T05:24:37;14.70;99.90
27226;DHT22;14732;51.074;3.788;2023-05-23T05:27:05;14.60;99.90
27226;DHT22;14732;51.074;3.788;2023-05-23T05:29:31;14.80;99.90
27226;DHT22;14732;51.074;3.788;2023-05-23T05:31:58;14.90;99.90
27226;DHT22;14732;51.074;3.788;2023-05-23T05:34:26;14.40;99.90
27226;DHT22;14732;51.074;3.788;2023-05-23T05:36:52;14.30;99.90
27226;DHT22;14732;51.074;3.788;2023-05-23T05:39:22;14.60;99.90
27226;DHT22;14732;51.074;3.788;2023-05-23T05:41:48;14.80;99.90
27226;DHT22;14732;51.074;3.788;2023-05-23T05:44:14;15.00;99.90
27226;DHT22;14732;51.074;3.788;2023-05-23T05:46:40;15.10;99.90
27226;DHT22;14732;51.074;3.788;2023-05-23T05:49:05;15.30;99.90
27226;DHT22;14732;51.074;3.788;2023-05-23T05:51:31;15.30;99.90
27226;DHT22;14732;51.074;3.788;2023-05-23T05:53:58;15.40;99.90
27226;DHT22;14732;51.074;3.788;2023-05-23T05:56:25;15.10;99.90
27226;DHT22;14732;51.074;3.788;2023-05-23T05:58:52;15.00;99.90
27226;DHT22;14732;51.074;3.788;2023-05-23T06:01:17;14.90;99.90
27226;DHT22;14732;51.074;3.788;2023-05-23T06:03:43;15.20;99.90
27226;DHT22;14732;51.074;3.788;2023-05-23T06:06:09;15.20;99.90
27226;DHT22;14732;51.074;3.788;2023-05-23T06:08:34;15.10;99.90
27226;DHT22;14732;51.074;3.788;2023-05-23T06:11:00;15.00;99.90
27226;DHT22;14732;51.074;3.788;2023-05-23T06:13:27;15.10;99.90
27226;DHT22;14732;51.074;3.788;2023-05-23T06:15:53;15.20;99.90
27226;DHT22;14732;51.074;3.788;2023-05-23T06:18:23;15.20;99.90
27226;DHT22;14732;51.074;3.788;2023-05-23T06:20:48;15.30;99.90
27226;DHT22;14732;51.074;3.788;2023-05-23T06:23:14;15.30;99.90
27226;DHT22;14732;51.074;3.788;2023-05-23T06:25:40;15.10;99.90
27226;DHT22;14732;51.074;3.788;2023-05-23T06:28:05;14.80;99.90
27226;DHT22;14732;51.074;3.788;2023-05-23T06:30:31;14.80;99.90
27226;DHT22;14732;51.074;3.788;2023-05-23T06:32:57;14.90;99.90
27226;DHT22;14732;51.074;3.788;2023-05-23T06:35:23;14.80;99.90
27226;DHT22;14732;51.074;3.788;2023-05-23T06:37:49;14.90;99.90
27226;DHT22;14732;51.074;3.788;2023-05-23T06:40:15;15.00;99.90
27226;DHT22;14732;51.074;3.788;2023-05-23T06:42:40;14.90;99.90
27226;DHT22;14732;51.074;3.788;2023-05-23T06:45:07;15.00;99.90
27226;DHT22;14732;51.074;3.788;2023-05-23T06:47:32;15.20;99.90
27226;DHT22;14732;51.074;3.788;2023-05-23T06:50:04;15.20;99.90
27226;DHT22;14732;51.074;3.788;2023-05-23T06:52:30;15.00;99.90
27226;DHT22;14732;51.074;3.788;2023-05-23T06:54:56;15.30;99.90
27226;DHT22;14732;51.074;3.788;2023-05-23T06:57:21;15.60;99.90
27226;DHT22;14732;51.074;3.788;2023-05-23T06:59:47;15.50;99.90
27226;DHT22;14732;51.074;3.788;2023-05-23T07:02:13;15.50;99.90
27226;DHT22;14732;51.074;3.788;2023-05-23T07:04:39;15.50;99.90
27226;DHT22;14732;51.074;3.788;2023-05-23T07:07:05;15.50;99.90
27226;DHT22;14732;51.074;3.788;2023-05-23T07:09:31;15.50;99.90
27226;DHT22;14732;51.074;3.788;2023-05-23T07:11:57;15.60;99.90
27226;DHT22;14732;51.074;3.788;2023-05-23T07:14:22;15.60;99.90
27226;DHT22;14732;51.074;3.788;2023-05-23T07:16:48;15.50;99.90
27226;DHT22;14732;51.074;3.788;2023-05-23T07:19:14;15.40;99.90
27226;DHT22;14732;51.074;3.788;2023-05-23T07:21:39;15.10;99.90
27226;DHT22;14732;51.074;3.788;2023-05-23T07:24:05;14.80;99.90
27226;DHT22;14732;51.074;3.788;2023-05-23T07:26:31;14.90;99.90
27226;DHT22;14732;51.074;3.788;2023-05-23T07:28:57;15.00;99.90
27226;DHT22;14732;51.074;3.788;2023-05-23T07:31:23;15.20;99.90
27226;DHT22;14732;51.074;3.788;2023-05-23T07:33:49;15.30;99.90
27226;DHT22;14732;51.074;3.788;2023-05-23T07:36:14;15.20;99.90
27226;DHT22;14732;51.074;3.788;2023-05-23T07:38:40;15.30;99.90
27226;DHT22;14732;51.074;3.788;2023-05-23T07:41:06;15.40;99.90
27226;DHT22;14732;51.074;3.788;2023-05-23T07:43:32;15.20;99.90
27226;DHT22;14732;51.074;3.788;2023-05-23T07:45:57;15.40;99.90
27226;DHT22;14732;51.074;3.788;2023-05-23T07:48:23;15.40;99.90
27226;DHT22;14732;51.074;3.788;2023-05-23T07:50:51;15.30;99.90
27226;DHT22;14732;51.074;3.788;2023-05-23T07:53:20;15.10;99.90
27226;DHT22;14732;51.074;3.788;2023-05-23T07:55:46;15.00;99.90
27226;DHT22;14732;51.074;3.788;2023-05-23T07:58:12;14.90;99.90
27226;DHT22;14732;51.074;3.788;2023-05-23T08:00:38;14.90;99.90
27226;DHT22;14732;51.074;3.788;2023-05-23T08:03:05;15.00;99.90
27226;DHT22;14732;51.074;3.788;2023-05-23T08:05:31;15.00;99.90
27226;DHT22;14732;51.074;3.788;2023-05-23T08:07:57;15.00;99.90
27226;DHT22;14732;51.074;3.788;2023-05-23T08:10:23;15.20;99.90
27226;DHT22;14732;51.074;3.788;2023-05-23T08:12:50;15.00;99.90
27226;DHT22;14732;51.074;3.788;2023-05-23T08:15:16;15.10;99.90
27226;DHT22;14732;51.074;3.788;2023-05-23T08:17:41;15.20;99.90
27226;DHT22;14732;51.074;3.788;2023-05-23T08:20:08;15.30;99.90
27226;DHT22;14732;51.074;3.788;2023-05-23T08:22:34;15.20;99.90
27226;DHT22;14732;51.074;3.788;2023-05-23T08:25:00;15.50;99.90
27226;DHT22;14732;51.074;3.788;2023-05-23T08:27:27;15.70;99.90
27226;DHT22;14732;51.074;3.788;2023-05-23T08:29:54;15.80;99.90
27226;DHT22;14732;51.074;3.788;2023-05-23T08:32:20;15.90;99.90
27226;DHT22;14732;51.074;3.788;2023-05-23T08:34:45;15.90;99.90
27226;DHT22;14732;51.074;3.788;2023-05-23T08:37:11;15.90;99.90
27226;DHT22;14732;51.074;3.788;2023-05-23T08:39:37;15.80;99.90
27226;DHT22;14732;51.074;3.788;2023-05-23T08:42:02;15.70;99.90
27226;DHT22;14732;51.074;3.788;2023-05-23T08:44:28;15.80;99.90
27226;DHT22;14732;51.074;3.788;2023-05-23T08:46:54;15.80;99.90
27226;DHT22;14732;51.074;3.788;2023-05-23T08:49:22;15.70;99.90
27226;DHT22;14732;51.074;3.788;2023-05-23T08:51:51;15.80;99.90
27226;DHT22;14732;51.074;3.788;2023-05-23T08:54:20;16.00;99.90
27226;DHT22;14732;51.074;3.788;2023-05-23T08:56:47;16.30;99.90
27226;DHT22;14732;51.074;3.788;2023-05-23T08:59:13;16.30;99.90
27226;DHT22;14732;51.074;3.788;2023-05-23T09:01:40;16.20;99.90
27226;DHT22;14732;51.074;3.788;2023-05-23T09:04:06;16.50;99.90
27226;DHT22;14732;51.074;3.788;2023-05-23T09:06:31;16.50;99.90
27226;DHT22;14732;51.074;3.788;2023-05-23T09:08:57;16.30;99.90
27226;DHT22;14732;51.074;3.788;2023-05-23T09:11:23;16.40;99.90
27226;DHT22;14732;51.074;3.788;2023-05-23T09:13:49;16.60;99.90
27226;DHT22;14732;51.074;3.788;2023-05-23T09:16:15;16.60;99.90
27226;DHT22;14732;51.074;3.788;2023-05-23T09:18:43;16.60;99.90
27226;DHT22;14732;51.074;3.788;2023-05-23T09:21:10;17.00;99.90
27226;DHT22;14732;51.074;3.788;2023-05-23T09:23:38;17.30;99.90
27226;DHT22;14732;51.074;3.788;2023-05-23T09:26:09;17.00;99.90
27226;DHT22;14732;51.074;3.788;2023-05-23T09:28:36;17.00;99.90
27226;DHT22;14732;51.074;3.788;2023-05-23T09:31:07;16.90;99.90
27226;DHT22;14732;51.074;3.788;2023-05-23T09:33:42;16.90;99.90
27226;DHT22;14732;51.074;3.788;2023-05-23T09:36:08;17.20;99.90
27226;DHT22;14732;51.074;3.788;2023-05-23T09:38:38;17.40;99.90
27226;DHT22;14732;51.074;3.788;2023-05-23T09:41:05;17.50;99.90
27226;DHT22;14732;51.074;3.788;2023-05-23T09:43:30;17.50;99.90
27226;DHT22;14732;51.074;3.788;2023-05-23T09:46:10;17.20;99.90
27226;DHT22;14732;51.074;3.788;2023-05-23T09:48:36;17.20;99.90
27226;DHT22;14732;51.074;3.788;2023-05-23T09:51:07;17.40;99.90
27226;DHT22;14732;51.074;3.788;2023-05-23T09:53:33;17.50;99.90
27226;DHT22;14732;51.074;3.788;2023-05-23T09:56:01;17.50;99.90
27226;DHT22;14732;51.074;3.788;2023-05-23T09:58:27;17.30;99.90
27226;DHT22;14732;51.074;3.788;2023-05-23T10:00:59;17.10;99.90
27226;DHT22;14732;51.074;3.788;2023-05-23T10:03:34;17.20;99.90
27226;DHT22;14732;51.074;3.788;2023-05-23T10:06:08;17.40;99.90
27226;DHT22;14732;51.074;3.788;2023-05-23T10:08:42;17.70;99.90
27226;DHT22;14732;51.074;3.788;2023-05-23T10:13:43;19.20;99.90
27226;DHT22;14732;51.074;3.788;2023-05-23T10:16:23;19.60;99.90
27226;DHT22;14732;51.074;3.788;2023-05-23T10:18:57;19.60;99.90
27226;DHT22;14732;51.074;3.788;2023-05-23T10:21:28;20.00;99.90
27226;DHT22;14732;51.074;3.788;2023-05-23T10:23:58;19.50;99.90
27226;DHT22;14732;51.074;3.788;2023-05-23T10:26:26;19.30;99.90
27226;DHT22;14732;51.074;3.788;2023-05-23T10:28:53;19.40;99.90
27226;DHT22;14732;51.074;3.788;2023-05-23T10:31:20;19.40;99.90
27226;DHT22;14732;51.074;3.788;2023-05-23T10:33:51;19.00;99.90
27226;DHT22;14732;51.074;3.788;2023-05-23T10:36:51;18.80;99.90
27226;DHT22;14732;51.074;3.788;2023-05-23T10:39:22;18.90;99.90
27226;DHT22;14732;51.074;3.788;2023-05-23T10:41:59;18.90;99.90
27226;DHT22;14732;51.074;3.788;2023-05-23T10:44:28;19.30;99.90
27226;DHT22;14732;51.074;3.788;2023-05-23T10:46:59;19.90;99.90
27226;DHT22;14732;51.074;3.788;2023-05-23T10:49:43;19.90;99.90
27226;DHT22;14732;51.074;3.788;2023-05-23T10:52:14;19.40;99.90
27226;DHT22;14732;51.074;3.788;2023-05-23T10:54:54;19.50;99.90
27226;DHT22;14732;51.074;3.788;2023-05-23T10:57:24;19.70;99.90
27226;DHT22;14732;51.074;3.788;2023-05-23T10:59:54;19.80;99.90
27226;DHT22;14732;51.074;3.788;2023-05-23T11:02:27;19.50;99.90
27226;DHT22;14732;51.074;3.788;2023-05-23T11:05:31;19.50;99.90
27226;DHT22;14732;51.074;3.788;2023-05-23T11:08:09;19.80;99.90
27226;DHT22;14732;51.074;3.788;2023-05-23T11:10:59;20.10;99.90
27226;DHT22;14732;51.074;3.788;2023-05-23T11:13:53;20.00;99.90
27226;DHT22;14732;51.074;3.788;2023-05-23T11:16:39;20.10;99.90
27226;DHT22;14732;51.074;3.788;2023-05-23T11:21:45;19.90;99.90
27226;DHT22;14732;51.074;3.788;2023-05-23T11:24:11;19.90;99.90
27226;DHT22;14732;51.074;3.788;2023-05-23T11:26:37;19.80;99.90
27226;DHT22;14732;51.074;3.788;2023-05-23T11:29:07;19.60;99.90
27226;DHT22;14732;51.074;3.788;2023-05-23T11:31:39;19.30;99.90
27226;DHT22;14732;51.074;3.788;2023-05-23T11:34:06;19.60;99.90
27226;DHT22;14732;51.074;3.788;2023-05-23T11:36:32;19.50;99.90
27226;DHT22;14732;51.074;3.788;2023-05-23T11:39:01;19.30;99.90
27226;DHT22;14732;51.074;3.788;2023-05-23T11:41:29;19.40;99.90
27226;DHT22;14732;51.074;3.788;2023-05-23T11:43:54;19.10;99.90
27226;DHT22;14732;51.074;3.788;2023-05-23T11:46:20;19.60;99.90
27226;DHT22;14732;51.074;3.788;2023-05-23T11:48:47;19.80;99.90
27226;DHT22;14732;51.074;3.788;2023-05-23T11:51:13;20.00;99.90
27226;DHT22;14732;51.074;3.788;2023-05-23T11:53:40;20.20;99.90
27226;DHT22;14732;51.074;3.788;2023-05-23T11:56:06;19.90;99.90
27226;DHT22;14732;51.074;3.788;2023-05-23T11:58:36;19.50;99.90
27226;DHT22;14732;51.074;3.788;2023-05-23T12:01:10;19.30;99.90
27226;DHT22;14732;51.074;3.788;2023-05-23T12:03:49;19.70;99.90
27226;DHT22;14732;51.074;3.788;2023-05-23T12:06:17;19.80;99.90
27226;DHT22;14732;51.074;3.788;2023-05-23T12:08:43;20.00;99.90
27226;DHT22;14732;51.074;3.788;2023-05-23T12:11:09;19.50;99.90
27226;DHT22;14732;51.074;3.788;2023-05-23T12:13:36;19.30;99.90
27226;DHT22;14732;51.074;3.788;2023-05-23T12:16:02;19.60;99.90
27226;DHT22;14732;51.074;3.788;2023-05-23T12:18:30;19.80;99.90
27226;DHT22;14732;51.074;3.788;2023-05-23T12:21:01;19.90;99.90
27226;DHT22;14732;51.074;3.788;2023-05-23T12:23:30;19.50;99.90
27226;DHT22;14732;51.074;3.788;2023-05-23T12:25:57;19.10;99.90
27226;DHT22;14732;51.074;3.788;2023-05-23T12:28:36;19.20;99.90
27226;DHT22;14732;51.074;3.788;2023-05-23T12:31:20;19.20;99.90
27226;DHT22;14732;51.074;3.788;2023-05-23T12:33:51;19.30;99.90
27226;DHT22;14732;51.074;3.788;2023-05-23T12:36:29;19.40;99.90
27226;DHT22;14732;51.074;3.788;2023-05-23T12:39:03;19.70;99.90
27226;DHT22;14732;51.074;3.788;2023-05-23T12:41:31;20.10;99.90
27226;DHT22;14732;51.074;3.788;2023-05-23T12:43:57;20.20;99.90
27226;DHT22;14732;51.074;3.788;2023-05-23T12:46:24;20.30;99.90
27226;DHT22;14732;51.074;3.788;2023-05-23T12:48:51;20.20;99.90
27226;DHT22;14732;51.074;3.788;2023-05-23T12:51:17;20.30;99.90
27226;DHT22;14732;51.074;3.788;2023-05-23T12:53:43;20.40;99.90
27226;DHT22;14732;51.074;3.788;2023-05-23T12:56:09;20.60;99.90
27226;DHT22;14732;51.074;3.788;2023-05-23T12:58:35;20.20;99.90
27226;DHT22;14732;51.074;3.788;2023-05-23T13:01:02;20.30;99.90
27226;DHT22;14732;51.074;3.788;2023-05-23T13:03:28;19.90;99.90
27226;DHT22;14732;51.074;3.788;2023-05-23T13:05:56;19.70;99.90
27226;DHT22;14732;51.074;3.788;2023-05-23T13:08:25;19.90;99.90
27226;DHT22;14732;51.074;3.788;2023-05-23T13:10:55;20.20;99.90
27226;DHT22;14732;51.074;3.788;2023-05-23T13:13:21;20.10;99.90
27226;DHT22;14732;51.074;3.788;2023-05-23T13:15:47;20.10;99.90
27226;DHT22;14732;51.074;3.788;2023-05-23T13:18:12;20.20;99.90
27226;DHT22;14732;51.074;3.788;2023-05-23T13:20:38;20.30;99.90
27226;DHT22;14732;51.074;3.788;2023-05-23T13:23:05;20.30;99.90
27226;DHT22;14732;51.074;3.788;2023-05-23T13:25:30;20.20;99.90
27226;DHT22;14732;51.074;3.788;2023-05-23T13:27:56;20.20;99.90
27226;DHT22;14732;51.074;3.788;2023-05-23T13:30:23;20.10;99.90
27226;DHT22;14732;51.074;3.788;2023-05-23T13:32:49;20.10;99.90
27226;DHT22;14732;51.074;3.788;2023-05-23T13:35:15;19.90;99.90
27226;DHT22;14732;51.074;3.788;2023-05-23T13:37:41;20.10;99.90
27226;DHT22;14732;51.074;3.788;2023-05-23T13:40:07;20.60;99.90
27226;DHT22;14732;51.074;3.788;2023-05-23T13:42:36;20.50;99.90
27226;DHT22;14732;51.074;3.788;2023-05-23T13:45:02;20.40;99.90
27226;DHT22;14732;51.074;3.788;2023-05-23T13:47:29;20.50;99.90
27226;DHT22;14732;51.074;3.788;2023-05-23T13:49:55;20.30;99.90
27226;DHT22;14732;51.074;3.788;2023-05-23T13:52:21;20.10;99.90
27226;DHT22;14732;51.074;3.788;2023-05-23T13:54:46;19.40;99.90
27226;DHT22;14732;51.074;3.788;2023-05-23T13:57:12;19.50;99.90
27226;DHT22;14732;51.074;3.788;2023-05-23T13:59:38;19.60;99.90
27226;DHT22;14732;51.074;3.788;2023-05-23T14:02:04;19.30;99.90
27226;DHT22;14732;51.074;3.788;2023-05-23T14:04:31;19.40;99.90
27226;DHT22;14732;51.074;3.788;2023-05-23T14:06:57;19.50;99.90
27226;DHT22;14732;51.074;3.788;2023-05-23T14:09:22;19.80;99.90
27226;DHT22;14732;51.074;3.788;2023-05-23T14:11:48;19.50;99.90
27226;DHT22;14732;51.074;3.788;2023-05-23T14:14:15;19.30;99.90
27226;DHT22;14732;51.074;3.788;2023-05-23T14:16:41;19.30;99.90
27226;DHT22;14732;51.074;3.788;2023-05-23T14:19:07;19.40;99.90
27226;DHT22;14732;51.074;3.788;2023-05-23T14:21:32;19.50;99.90
27226;DHT22;14732;51.074;3.788;2023-05-23T14:23:58;19.40;99.90
27226;DHT22;14732;51.074;3.788;2023-05-23T14:26:24;19.50;99.90
27226;DHT22;14732;51.074;3.788;2023-05-23T14:28:50;19.60;99.90
27226;DHT22;14732;51.074;3.788;2023-05-23T14:31:15;19.70;99.90
27226;DHT22;14732;51.074;3.788;2023-05-23T14:33:41;19.50;99.90
27226;DHT22;14732;51.074;3.788;2023-05-23T14:36:08;19.50;99.90
27226;DHT22;14732;51.074;3.788;2023-05-23T14:38:34;19.50;99.90
27226;DHT22;14732;51.074;3.788;2023-05-23T14:40:59;19.70;99.90
27226;DHT22;14732;51.074;3.788;2023-05-23T14:43:25;19.90;99.90
27226;DHT22;14732;51.074;3.788;2023-05-23T14:45:50;20.00;99.90
27226;DHT22;14732;51.074;3.788;2023-05-23T14:48:16;19.70;99.90
27226;DHT22;14732;51.074;3.788;2023-05-23T14:50:42;19.80;99.90
27226;DHT22;14732;51.074;3.788;2023-05-23T14:53:07;19.90;99.90
27226;DHT22;14732;51.074;3.788;2023-05-23T14:55:33;19.90;99.90
27226;DHT22;14732;51.074;3.788;2023-05-23T14:57:59;19.90;99.90
27226;DHT22;14732;51.074;3.788;2023-05-23T15:00:24;19.70;99.90
27226;DHT22;14732;51.074;3.788;2023-05-23T15:02:50;19.50;99.90
27226;DHT22;14732;51.074;3.788;2023-05-23T15:05:16;19.20;99.90
27226;DHT22;14732;51.074;3.788;2023-05-23T15:07:42;19.30;99.90
27226;DHT22;14732;51.074;3.788;2023-05-23T15:10:08;19.20;99.90
27226;DHT22;14732;51.074;3.788;2023-05-23T15:12:34;19.20;99.90
27226;DHT22;14732;51.074;3.788;2023-05-23T15:15:00;18.90;99.90
27226;DHT22;14732;51.074;3.788;2023-05-23T15:17:30;19.20;99.90
27226;DHT22;14732;51.074;3.788;2023-05-23T15:19:56;18.90;99.90
27226;DHT22;14732;51.074;3.788;2023-05-23T15:22:23;18.80;99.90
27226;DHT22;14732;51.074;3.788;2023-05-23T15:24:49;18.70;99.90
27226;DHT22;14732;51.074;3.788;2023-05-23T15:27:15;18.60;99.90
27226;DHT22;14732;51.074;3.788;2023-05-23T15:29:41;18.90;99.90
27226;DHT22;14732;51.074;3.788;2023-05-23T15:32:09;18.80;99.90
27226;DHT22;14732;51.074;3.788;2023-05-23T15:34:35;19.00;99.90
27226;DHT22;14732;51.074;3.788;2023-05-23T15:37:00;19.00;99.90
27226;DHT22;14732;51.074;3.788;2023-05-23T15:39:26;19.10;99.90
27226;DHT22;14732;51.074;3.788;2023-05-23T15:41:53;18.90;99.90
27226;DHT22;14732;51.074;3.788;2023-05-23T15:44:19;18.90;99.90